createdAt,value
2022-11-05T00:00:15.133Z,23.40
2022-11-05T00:05:56.889Z,32.50
2022-11-05T00:11:00.485Z,21.67
2022-11-05T00:16:42.097Z,24.20
2022-11-05T00:22:04.042Z,23.87
2022-11-05T00:27:08.006Z,22.50
2022-11-05T00:32:11.449Z,22.47
2022-11-05T00:37:15.109Z,23.07
2022-11-05T00:42:37.388Z,22.33
2022-11-05T00:48:03.937Z,22.03
2022-11-05T00:53:09.209Z,22.47
2022-11-05T00:58:18.411Z,23.90
2022-11-05T01:03:24.528Z,22.83
2022-11-05T01:08:28.728Z,23.73
2022-11-05T01:13:32.385Z,22.27
2022-11-05T01:18:38.749Z,23.23
2022-11-05T01:23:42.088Z,25.13
2022-11-05T01:28:45.311Z,22.60
2022-11-05T01:33:48.826Z,23.20
2022-11-05T01:38:51.988Z,23.67
2022-11-05T01:43:57.771Z,23.50
2022-11-05T01:49:27.310Z,23.50
2022-11-05T01:54:33.749Z,24.33
2022-11-05T01:59:44.784Z,24.07
2022-11-05T02:04:55.152Z,24.67
2022-11-05T02:10:07.100Z,23.90
2022-11-05T02:15:16.170Z,23.60
2022-11-05T02:20:41.090Z,23.60
2022-11-05T02:25:47.256Z,22.73
2022-11-05T02:30:54.689Z,22.63
2022-11-05T02:36:24.487Z,23.47
2022-11-05T02:41:49.569Z,21.10
2022-11-05T02:47:18.263Z,22.97
2022-11-05T02:52:38.270Z,21.37
2022-11-05T02:57:46.392Z,22.93
2022-11-05T03:02:50.268Z,22.87
2022-11-05T03:08:00.229Z,22.83
2022-11-05T03:13:46.770Z,22.10
2022-11-05T03:19:04.049Z,22.80
2022-11-05T03:24:25.018Z,23.13
2022-11-05T03:29:38.156Z,21.07
2022-11-05T03:34:50.397Z,21.07
2022-11-05T03:39:59.330Z,21.30
2022-11-05T03:45:10.171Z,22.60
2022-11-05T03:50:41.473Z,29.87
2022-11-05T03:56:03.451Z,35.77
2022-11-05T04:01:07.216Z,26.87
2022-11-05T04:06:29.828Z,23.67
2022-11-05T04:11:51.528Z,20.47
2022-11-05T04:17:10.489Z,21.47
2022-11-05T04:22:32.532Z,21.20
2022-11-05T04:27:36.628Z,22.00
2022-11-05T04:32:40.014Z,23.37
2022-11-05T04:37:43.319Z,22.60
2022-11-05T04:42:46.818Z,24.27
2022-11-05T04:47:50.358Z,26.37
2022-11-05T04:52:53.823Z,22.43
2022-11-05T04:57:57.114Z,22.83
2022-11-05T05:03:01.184Z,21.80
2022-11-05T05:08:05.425Z,21.17
2022-11-05T05:13:11.324Z,21.83
2022-11-05T05:18:14.921Z,21.17
2022-11-05T05:23:18.388Z,21.00
2022-11-05T05:28:21.737Z,21.73
2022-11-05T05:33:25.087Z,22.43
2022-11-05T05:38:29.149Z,21.23
2022-11-05T05:43:34.009Z,21.67
2022-11-05T05:48:37.515Z,22.93
2022-11-05T05:53:40.753Z,20.97
2022-11-05T05:58:44.266Z,22.17
2022-11-05T06:03:48.985Z,21.77
2022-11-05T06:08:52.288Z,21.20
2022-11-05T06:13:56.072Z,21.97
2022-11-05T06:18:59.478Z,21.27
2022-11-05T06:24:04.009Z,22.83
2022-11-05T06:29:07.744Z,22.07
2022-11-05T06:34:11.127Z,23.27
2022-11-05T06:39:14.575Z,23.10
2022-11-05T06:44:17.967Z,23.10
2022-11-05T06:49:25.166Z,23.23
2022-11-05T06:54:28.854Z,23.60
2022-11-05T06:59:32.054Z,24.53
2022-11-05T07:04:35.436Z,22.77
2022-11-05T07:09:41.132Z,23.67
2022-11-05T07:14:44.450Z,22.53
2022-11-05T07:19:47.744Z,20.67
2022-11-05T07:24:51.198Z,20.60
2022-11-05T07:29:54.556Z,22.17
2022-11-05T07:34:58.159Z,22.57
2022-11-05T07:40:01.477Z,20.70
2022-11-05T07:45:05.758Z,22.23
2022-11-05T07:50:10.478Z,22.17
2022-11-05T07:55:14.099Z,19.40
2022-11-05T08:00:22.825Z,20.20
2022-11-05T08:05:26.458Z,19.83
2022-11-05T08:10:29.868Z,19.13
2022-11-05T08:15:33.820Z,19.00
2022-11-05T08:20:37.505Z,18.00
2022-11-05T08:25:41.190Z,15.57
2022-11-05T08:30:44.760Z,15.73
2022-11-05T08:35:48.635Z,16.53
2022-11-05T08:40:57.925Z,14.13
2022-11-05T08:46:02.367Z,13.83
2022-11-05T08:51:07.184Z,11.83
2022-11-05T08:56:10.545Z,11.47
2022-11-05T09:01:14.047Z,9.63
2022-11-05T09:06:18.358Z,8.63
2022-11-05T09:11:21.618Z,8.13
2022-11-05T09:16:27.527Z,7.87
2022-11-05T09:21:31.396Z,7.60
2022-11-05T09:26:35.397Z,7.17
2022-11-05T09:31:40.879Z,5.40
2022-11-05T09:36:44.537Z,5.00
2022-11-05T09:41:49.852Z,4.87
2022-11-05T09:46:59.537Z,3.40
2022-11-05T09:52:03.426Z,3.53
2022-11-05T09:57:11.499Z,3.27
2022-11-05T10:02:28.162Z,3.40
2022-11-05T10:07:37.249Z,2.57
2022-11-05T10:12:48.090Z,2.53
2022-11-05T10:17:59.747Z,2.40
2022-11-05T10:23:14.938Z,2.50
2022-11-05T10:28:21.727Z,2.33
2022-11-05T10:34:05.889Z,2.23
2022-11-05T10:39:18.646Z,1.90
2022-11-05T10:44:39.509Z,1.60
2022-11-05T10:50:00.141Z,1.50
2022-11-05T10:55:30.086Z,1.90
2022-11-05T11:00:33.326Z,1.80
2022-11-05T11:05:39.473Z,2.10
2022-11-05T11:10:53.485Z,1.50
2022-11-05T11:16:15.459Z,1.60
2022-11-05T11:21:21.082Z,1.70
2022-11-05T11:26:27.692Z,1.50
2022-11-05T11:31:34.047Z,1.70
2022-11-05T11:36:45.278Z,2.13
2022-11-05T11:41:58.015Z,1.90
2022-11-05T11:47:10.428Z,2.10
2022-11-05T11:52:19.126Z,2.23
2022-11-05T11:57:26.496Z,2.00
2022-11-05T12:02:48.017Z,2.17
2022-11-05T12:07:53.637Z,1.73
2022-11-05T12:12:59.849Z,1.80
2022-11-05T12:18:06.348Z,1.50
2022-11-05T12:23:22.387Z,1.77
2022-11-05T12:29:17.874Z,1.90
2022-11-05T12:34:35.799Z,2.27
2022-11-05T12:39:51.577Z,1.50
2022-11-05T12:45:19.664Z,2.00
2022-11-05T12:50:28.942Z,2.57
2022-11-05T12:55:47.135Z,2.20
2022-11-05T13:01:27.799Z,3.60
2022-11-05T13:06:42.799Z,3.77
2022-11-05T13:12:11.999Z,3.33
2022-11-05T13:17:26.286Z,3.97
2022-11-05T13:22:38.225Z,5.00
2022-11-05T13:28:07.427Z,6.50
2022-11-05T13:33:23.375Z,7.40
2022-11-05T13:38:46.829Z,8.43
2022-11-05T13:44:15.268Z,7.87
2022-11-05T13:49:33.202Z,8.20
2022-11-05T13:54:54.367Z,7.43
2022-11-05T14:00:12.678Z,6.27
2022-11-05T14:05:35.426Z,5.30
2022-11-05T14:11:05.087Z,5.13
2022-11-05T14:16:20.732Z,5.27
2022-11-05T14:21:26.880Z,5.33
2022-11-05T14:26:33.513Z,5.57
2022-11-05T14:37:13.161Z,4.67
2022-11-05T14:42:22.757Z,5.23
2022-11-05T14:47:29.799Z,5.00
2022-11-05T14:52:34.648Z,5.43
2022-11-05T14:57:44.482Z,4.87
2022-11-05T15:03:01.908Z,5.00
2022-11-05T15:08:27.208Z,4.70
2022-11-05T15:13:39.327Z,5.07
2022-11-05T15:18:47.489Z,5.90
2022-11-05T15:23:55.126Z,5.73
2022-11-05T15:28:59.317Z,5.00
2022-11-05T15:34:26.046Z,5.13
2022-11-05T15:39:41.348Z,4.93
2022-11-05T15:44:47.847Z,4.70
2022-11-05T15:50:15.132Z,4.37
2022-11-05T15:55:24.267Z,4.87
2022-11-05T16:00:30.548Z,4.27
2022-11-05T16:05:42.759Z,4.33
2022-11-05T16:10:51.438Z,4.90
2022-11-05T16:16:01.012Z,4.33
2022-11-05T16:21:11.446Z,5.10
2022-11-05T16:32:03.532Z,5.53
2022-11-05T16:37:11.563Z,5.20
2022-11-05T16:42:23.737Z,4.83
2022-11-05T16:47:27.527Z,6.07
2022-11-05T16:52:30.816Z,6.47
2022-11-05T16:57:35.793Z,8.60
2022-11-05T17:02:39.484Z,7.37
2022-11-05T17:07:43.462Z,8.50
2022-11-05T17:12:48.009Z,8.63
2022-11-05T17:17:53.437Z,8.13
2022-11-05T17:22:59.208Z,9.07
2022-11-05T17:28:04.488Z,7.13
2022-11-05T17:33:08.629Z,6.87
2022-11-05T17:38:13.263Z,4.93
2022-11-05T17:43:17.257Z,5.53
2022-11-05T17:48:22.517Z,5.37
2022-11-05T17:53:26.242Z,6.07
2022-11-05T17:58:31.069Z,5.33
2022-11-05T18:03:35.397Z,5.13
2022-11-05T18:08:39.787Z,6.07
2022-11-05T18:13:46.125Z,6.63
2022-11-05T18:18:50.077Z,7.10
2022-11-05T18:23:55.119Z,7.67
2022-11-05T18:29:05.596Z,7.63
2022-11-05T18:34:11.377Z,10.00
2022-11-05T18:39:22.280Z,8.47
2022-11-05T18:44:27.218Z,8.90
2022-11-05T18:49:32.518Z,8.27
2022-11-05T18:54:38.715Z,9.47
2022-11-05T18:59:47.389Z,10.00
2022-11-05T19:05:26.802Z,10.13
2022-11-05T19:10:18.056Z,33.87
2022-11-05T19:15:26.318Z,17.70
2022-11-05T19:20:36.628Z,16.20
2022-11-05T19:25:42.237Z,21.27
2022-11-05T19:30:46.844Z,15.17
2022-11-05T19:35:54.075Z,15.23
2022-11-05T19:40:59.389Z,12.60
2022-11-05T19:46:09.027Z,12.60
2022-11-05T19:51:20.348Z,13.00
2022-11-05T19:56:30.490Z,13.20
2022-11-05T20:01:36.901Z,12.80
2022-11-05T20:06:43.658Z,12.77
2022-11-05T20:11:59.546Z,11.77
2022-11-05T20:17:09.999Z,10.60
2022-11-05T20:22:15.949Z,9.30
2022-11-05T20:27:20.618Z,9.33
2022-11-05T20:32:25.581Z,11.33
2022-11-05T20:37:35.076Z,8.90
2022-11-05T20:42:41.648Z,9.23
2022-11-05T20:47:45.718Z,10.03
2022-11-05T20:52:52.208Z,9.70
2022-11-05T20:57:56.072Z,9.70
2022-11-05T21:03:02.521Z,11.27
2022-11-05T21:08:07.093Z,11.70
2022-11-05T21:13:12.207Z,12.43
2022-11-05T21:18:16.287Z,11.90
2022-11-05T21:23:22.723Z,9.97
2022-11-05T21:28:32.442Z,10.77
2022-11-05T21:33:36.691Z,12.43
2022-11-05T21:38:44.617Z,12.43
2022-11-05T21:43:49.537Z,12.10
2022-11-05T21:48:52.707Z,11.07
2022-11-05T21:54:14.946Z,9.70
2022-11-05T21:59:41.082Z,9.73
2022-11-05T22:04:47.208Z,11.85
2022-11-05T22:09:51.188Z,9.33
2022-11-05T22:14:55.047Z,8.80
2022-11-05T22:19:59.175Z,9.73
2022-11-05T22:25:03.010Z,9.87
2022-11-05T22:30:07.106Z,10.73
2022-11-05T22:35:10.912Z,9.27
2022-11-05T22:40:14.337Z,9.63
2022-11-05T22:45:17.708Z,7.83
2022-11-05T22:50:21.493Z,8.40
2022-11-05T22:55:24.897Z,9.37
2022-11-05T23:00:38.668Z,8.30
2022-11-05T23:05:42.368Z,8.37
2022-11-05T23:11:04.089Z,8.10
2022-11-05T23:16:26.408Z,9.33
2022-11-05T23:21:48.879Z,8.50
2022-11-05T23:26:52.361Z,8.67
2022-11-05T23:32:14.188Z,8.47
2022-11-05T23:37:35.907Z,9.87
2022-11-05T23:42:58.213Z,13.60
2022-11-05T23:48:32.577Z,17.40
2022-11-05T23:53:38.125Z,15.70
2022-11-05T23:58:42.648Z,18.63
